Fort Thomas, Arizona
Current Conditions -  °F | °C
As of 8:51 PM on Sunday 21 Dec 2014 (Local Time) from KSAD Reporting Station
Clear Clear  
Wind Chill: 51°   Ceiling: Unl
Heat Index: 51°   Visibility: 10mi
Dew Point: 35°   Wind: 10mph
Humidity: 54%   Direction: 320°NW
Pressure: 30.01"   Gusts: NA
Location:  33.04°N, 109.96°W
Report Text: KSAD 220351Z AUTO 32009KT 10SM CLR 11/02 A3001 RMK AO2 SLP151 T01060017
Loading
Personal Weather Stations






























Interactive Weather Map New forecast layout! Learn more

10-Day Weather Forecast

Advertisements
Track Severe Weather on mobile